sensor_id;sensor_type;location;lat;lon;timestamp;pressure;altitude;pressure_sealevel;temperature
4421;BMP180;11824;51.178;13.546;2023-10-08T00:01:51;100319.00;;;19.70
4421;BMP180;11824;51.178;13.546;2023-10-08T00:04:23;100318.00;;;19.70
4421;BMP180;11824;51.178;13.546;2023-10-08T00:10:21;100314.00;;;19.70
4421;BMP180;11824;51.178;13.546;2023-10-08T00:13:00;100318.00;;;19.70
4421;BMP180;11824;51.178;13.546;2023-10-08T00:15:29;100322.00;;;19.70
4421;BMP180;11824;51.178;13.546;2023-10-08T00:17:59;100330.00;;;19.70
4421;BMP180;11824;51.178;13.546;2023-10-08T00:20:29;100332.00;;;19.70
4421;BMP180;11824;51.178;13.546;2023-10-08T00:23:03;100332.00;;;19.70
4421;BMP180;11824;51.178;13.546;2023-10-08T00:25:36;100339.00;;;19.70
4421;BMP180;11824;51.178;13.546;2023-10-08T00:28:09;100319.00;;;19.60
4421;BMP180;11824;51.178;13.546;2023-10-08T00:30:41;100332.00;;;19.60
4421;BMP180;11824;51.178;13.546;2023-10-08T00:33:11;100333.00;;;19.60
4421;BMP180;11824;51.178;13.546;2023-10-08T00:35:44;100336.00;;;19.50
4421;BMP180;11824;51.178;13.546;2023-10-08T00:38:13;100345.00;;;19.40
4421;BMP180;11824;51.178;13.546;2023-10-08T00:40:49;100342.00;;;19.40
4421;BMP180;11824;51.178;13.546;2023-10-08T00:43:32;100321.00;;;19.30
4421;BMP180;11824;51.178;13.546;2023-10-08T00:46:06;100325.00;;;19.20
4421;BMP180;11824;51.178;13.546;2023-10-08T00:48:45;100325.00;;;19.20
4421;BMP180;11824;51.178;13.546;2023-10-08T00:51:15;100315.00;;;19.10
4421;BMP180;11824;51.178;13.546;2023-10-08T00:53:56;100336.00;;;19.00
4421;BMP180;11824;51.178;13.546;2023-10-08T00:56:35;100342.00;;;19.00
4421;BMP180;11824;51.178;13.546;2023-10-08T00:59:17;100354.00;;;18.90
4421;BMP180;11824;51.178;13.546;2023-10-08T01:01:49;100353.00;;;18.80
4421;BMP180;11824;51.178;13.546;2023-10-08T01:04:20;100367.00;;;18.60
4421;BMP180;11824;51.178;13.546;2023-10-08T01:06:53;100349.00;;;18.50
4421;BMP180;11824;51.178;13.546;2023-10-08T01:09:27;100355.00;;;18.40
4421;BMP180;11824;51.178;13.546;2023-10-08T01:12:18;100361.00;;;18.30
4421;BMP180;11824;51.178;13.546;2023-10-08T01:14:54;100367.00;;;18.10
4421;BMP180;11824;51.178;13.546;2023-10-08T01:17:32;100373.00;;;18.00
4421;BMP180;11824;51.178;13.546;2023-10-08T01:20:14;100381.00;;;17.90
4421;BMP180;11824;51.178;13.546;2023-10-08T01:23:01;100379.00;;;17.80
4421;BMP180;11824;51.178;13.546;2023-10-08T01:25:38;100392.00;;;17.70
4421;BMP180;11824;51.178;13.546;2023-10-08T01:28:08;100404.00;;;17.40
4421;BMP180;11824;51.178;13.546;2023-10-08T01:30:43;100410.00;;;17.00
4421;BMP180;11824;51.178;13.546;2023-10-08T01:33:15;100409.00;;;16.60
4421;BMP180;11824;51.178;13.546;2023-10-08T01:35:49;100436.00;;;16.20
4421;BMP180;11824;51.178;13.546;2023-10-08T01:38:20;100434.00;;;16.00
4421;BMP180;11824;51.178;13.546;2023-10-08T01:40:51;100434.00;;;15.70
4421;BMP180;11824;51.178;13.546;2023-10-08T01:43:20;100430.00;;;15.50
4421;BMP180;11824;51.178;13.546;2023-10-08T01:45:49;100447.00;;;15.30
4421;BMP180;11824;51.178;13.546;2023-10-08T01:48:20;100430.00;;;15.10
4421;BMP180;11824;51.178;13.546;2023-10-08T01:50:56;100431.00;;;14.90
4421;BMP180;11824;51.178;13.546;2023-10-08T01:53:30;100445.00;;;14.70
4421;BMP180;11824;51.178;13.546;2023-10-08T01:55:59;100445.00;;;14.50
4421;BMP180;11824;51.178;13.546;2023-10-08T01:58:29;100447.00;;;14.40
4421;BMP180;11824;51.178;13.546;2023-10-08T02:00:57;100472.00;;;14.20
4421;BMP180;11824;51.178;13.546;2023-10-08T02:03:28;100470.00;;;14.10
4421;BMP180;11824;51.178;13.546;2023-10-08T02:05:57;100481.00;;;14.10
4421;BMP180;11824;51.178;13.546;2023-10-08T02:08:28;100483.00;;;14.00
4421;BMP180;11824;51.178;13.546;2023-10-08T02:10:59;100485.00;;;14.00
4421;BMP180;11824;51.178;13.546;2023-10-08T02:13:30;100461.00;;;13.90
4421;BMP180;11824;51.178;13.546;2023-10-08T02:15:59;100463.00;;;13.90
4421;BMP180;11824;51.178;13.546;2023-10-08T02:18:28;100468.00;;;13.90
4421;BMP180;11824;51.178;13.546;2023-10-08T02:20:59;100489.00;;;13.90
4421;BMP180;11824;51.178;13.546;2023-10-08T02:23:29;100486.00;;;13.80
4421;BMP180;11824;51.178;13.546;2023-10-08T02:25:59;100490.00;;;13.80
4421;BMP180;11824;51.178;13.546;2023-10-08T02:28:27;100491.00;;;13.80
4421;BMP180;11824;51.178;13.546;2023-10-08T02:30:56;100507.00;;;13.80
4421;BMP180;11824;51.178;13.546;2023-10-08T02:33:26;100525.00;;;13.80
4421;BMP180;11824;51.178;13.546;2023-10-08T02:35:55;100549.00;;;13.80
4421;BMP180;11824;51.178;13.546;2023-10-08T02:38:24;100542.00;;;13.80
4421;BMP180;11824;51.178;13.546;2023-10-08T02:40:57;100542.00;;;13.70
4421;BMP180;11824;51.178;13.546;2023-10-08T02:43:26;100539.00;;;13.70
4421;BMP180;11824;51.178;13.546;2023-10-08T02:45:57;100554.00;;;13.70
4421;BMP180;11824;51.178;13.546;2023-10-08T02:48:27;100568.00;;;13.60
4421;BMP180;11824;51.178;13.546;2023-10-08T02:50:57;100562.00;;;13.60
4421;BMP180;11824;51.178;13.546;2023-10-08T02:53:34;100570.00;;;13.60
4421;BMP180;11824;51.178;13.546;2023-10-08T02:56:04;100564.00;;;13.50
4421;BMP180;11824;51.178;13.546;2023-10-08T02:58:40;100582.00;;;13.50
4421;BMP180;11824;51.178;13.546;2023-10-08T03:01:11;100597.00;;;13.50
4421;BMP180;11824;51.178;13.546;2023-10-08T03:03:41;100612.00;;;13.50
4421;BMP180;11824;51.178;13.546;2023-10-08T03:06:10;100639.00;;;13.50
4421;BMP180;11824;51.178;13.546;2023-10-08T03:08:42;100623.00;;;13.50
4421;BMP180;11824;51.178;13.546;2023-10-08T03:11:13;100630.00;;;13.40
4421;BMP180;11824;51.178;13.546;2023-10-08T03:13:45;100638.00;;;13.30
4421;BMP180;11824;51.178;13.546;2023-10-08T03:16:19;100652.00;;;13.20
4421;BMP180;11824;51.178;13.546;2023-10-08T03:19:01;100665.00;;;13.00
4421;BMP180;11824;51.178;13.546;2023-10-08T03:21:33;100669.00;;;12.90
4421;BMP180;11824;51.178;13.546;2023-10-08T03:24:16;100690.00;;;12.80
4421;BMP180;11824;51.178;13.546;2023-10-08T03:27:15;100676.00;;;12.70
4421;BMP180;11824;51.178;13.546;2023-10-08T03:29:48;100669.00;;;12.50
4421;BMP180;11824;51.178;13.546;2023-10-08T03:32:24;100681.00;;;12.30
4421;BMP180;11824;51.178;13.546;2023-10-08T03:34:55;100681.00;;;12.20
4421;BMP180;11824;51.178;13.546;2023-10-08T03:37:27;100699.00;;;12.10
4421;BMP180;11824;51.178;13.546;2023-10-08T03:40:09;100714.00;;;12.00
4421;BMP180;11824;51.178;13.546;2023-10-08T03:42:56;100721.00;;;11.90
4421;BMP180;11824;51.178;13.546;2023-10-08T03:45:25;100712.00;;;11.80
4421;BMP180;11824;51.178;13.546;2023-10-08T03:48:11;100703.00;;;11.70
4421;BMP180;11824;51.178;13.546;2023-10-08T03:50:43;100715.00;;;11.60
4421;BMP180;11824;51.178;13.546;2023-10-08T03:53:13;100720.00;;;11.60
4421;BMP180;11824;51.178;13.546;2023-10-08T03:55:44;100731.00;;;11.50
4421;BMP180;11824;51.178;13.546;2023-10-08T03:58:17;100734.00;;;11.50
4421;BMP180;11824;51.178;13.546;2023-10-08T04:00:56;100740.00;;;11.40
4421;BMP180;11824;51.178;13.546;2023-10-08T04:03:36;100736.00;;;11.40
4421;BMP180;11824;51.178;13.546;2023-10-08T04:06:27;100730.00;;;11.30
4421;BMP180;11824;51.178;13.546;2023-10-08T04:09:06;100720.00;;;11.30
4421;BMP180;11824;51.178;13.546;2023-10-08T04:11:44;100730.00;;;11.30
4421;BMP180;11824;51.178;13.546;2023-10-08T04:14:28;100730.00;;;11.20
4421;BMP180;11824;51.178;13.546;2023-10-08T04:16:58;100733.00;;;11.20
4421;BMP180;11824;51.178;13.546;2023-10-08T04:19:29;100721.00;;;11.20
4421;BMP180;11824;51.178;13.546;2023-10-08T04:22:03;100742.00;;;11.20
4421;BMP180;11824;51.178;13.546;2023-10-08T04:24:42;100732.00;;;11.30
4421;BMP180;11824;51.178;13.546;2023-10-08T04:27:12;100729.00;;;11.30
4421;BMP180;11824;51.178;13.546;2023-10-08T04:29:44;100741.00;;;11.30
4421;BMP180;11824;51.178;13.546;2023-10-08T04:32:17;100741.00;;;11.30
4421;BMP180;11824;51.178;13.546;2023-10-08T04:34:52;100734.00;;;11.30
4421;BMP180;11824;51.178;13.546;2023-10-08T04:37:25;100747.00;;;11.30
4421;BMP180;11824;51.178;13.546;2023-10-08T04:40:00;100755.00;;;11.30
4421;BMP180;11824;51.178;13.546;2023-10-08T04:42:29;100768.00;;;11.30
4421;BMP180;11824;51.178;13.546;2023-10-08T04:44:59;100764.00;;;11.30
4421;BMP180;11824;51.178;13.546;2023-10-08T04:47:29;100784.00;;;11.30
4421;BMP180;11824;51.178;13.546;2023-10-08T04:50:02;100796.00;;;11.30
4421;BMP180;11824;51.178;13.546;2023-10-08T04:52:33;100816.00;;;11.30
4421;BMP180;11824;51.178;13.546;2023-10-08T04:55:13;100810.00;;;11.30
4421;BMP180;11824;51.178;13.546;2023-10-08T04:57:47;100818.00;;;11.30
4421;BMP180;11824;51.178;13.546;2023-10-08T05:00:19;100807.00;;;11.30
4421;BMP180;11824;51.178;13.546;2023-10-08T05:03:08;100832.00;;;11.30
4421;BMP180;11824;51.178;13.546;2023-10-08T05:05:42;100833.00;;;11.30
4421;BMP180;11824;51.178;13.546;2023-10-08T05:08:35;100818.00;;;11.30
4421;BMP180;11824;51.178;13.546;2023-10-08T05:11:15;100821.00;;;11.30
4421;BMP180;11824;51.178;13.546;2023-10-08T05:13:53;100832.00;;;11.40
4421;BMP180;11824;51.178;13.546;2023-10-08T05:16:31;100829.00;;;11.40
4421;BMP180;11824;51.178;13.546;2023-10-08T05:19:12;100828.00;;;11.40
4421;BMP180;11824;51.178;13.546;2023-10-08T05:22:15;100853.00;;;11.30
4421;BMP180;11824;51.178;13.546;2023-10-08T05:25:10;100855.00;;;11.30
4421;BMP180;11824;51.178;13.546;2023-10-08T05:27:53;100854.00;;;11.30
4421;BMP180;11824;51.178;13.546;2023-10-08T05:30:32;100859.00;;;11.30
4421;BMP180;11824;51.178;13.546;2023-10-08T05:33:14;100864.00;;;11.40
4421;BMP180;11824;51.178;13.546;2023-10-08T05:35:55;100857.00;;;11.40
4421;BMP180;11824;51.178;13.546;2023-10-08T05:38:38;100851.00;;;11.40
4421;BMP180;11824;51.178;13.546;2023-10-08T05:41:16;100865.00;;;11.50
4421;BMP180;11824;51.178;13.546;2023-10-08T05:44:07;100884.00;;;11.40
4421;BMP180;11824;51.178;13.546;2023-10-08T05:47:11;100876.00;;;11.50
4421;BMP180;11824;51.178;13.546;2023-10-08T05:50:17;100885.00;;;11.50
4421;BMP180;11824;51.178;13.546;2023-10-08T05:53:06;100882.00;;;11.50
4421;BMP180;11824;51.178;13.546;2023-10-08T05:56:05;100889.00;;;11.50
4421;BMP180;11824;51.178;13.546;2023-10-08T05:58:44;100910.00;;;11.50
4421;BMP180;11824;51.178;13.546;2023-10-08T06:02:02;100943.00;;;11.40
4421;BMP180;11824;51.178;13.546;2023-10-08T06:05:03;100930.00;;;11.40
4421;BMP180;11824;51.178;13.546;2023-10-08T06:08:09;100902.00;;;11.40
4421;BMP180;11824;51.178;13.546;2023-10-08T06:10:58;100902.00;;;11.40
4421;BMP180;11824;51.178;13.546;2023-10-08T06:13:43;100913.00;;;11.40
4421;BMP180;11824;51.178;13.546;2023-10-08T06:16:18;100930.00;;;11.50
4421;BMP180;11824;51.178;13.546;2023-10-08T06:19:10;100920.00;;;11.50
4421;BMP180;11824;51.178;13.546;2023-10-08T06:21:39;100921.00;;;11.60
4421;BMP180;11824;51.178;13.546;2023-10-08T06:24:10;100925.00;;;11.60
4421;BMP180;11824;51.178;13.546;2023-10-08T06:26:45;100932.00;;;11.70
4421;BMP180;11824;51.178;13.546;2023-10-08T06:29:16;100924.00;;;11.70
4421;BMP180;11824;51.178;13.546;2023-10-08T06:31:57;100931.00;;;11.70
4421;BMP180;11824;51.178;13.546;2023-10-08T06:34:29;100931.00;;;11.80
4421;BMP180;11824;51.178;13.546;2023-10-08T06:36:59;100941.00;;;11.80
4421;BMP180;11824;51.178;13.546;2023-10-08T06:39:30;100945.00;;;11.90
4421;BMP180;11824;51.178;13.546;2023-10-08T06:42:15;100951.00;;;11.90
4421;BMP180;11824;51.178;13.546;2023-10-08T06:44:45;100976.00;;;12.00
4421;BMP180;11824;51.178;13.546;2023-10-08T06:47:16;100983.00;;;12.00
4421;BMP180;11824;51.178;13.546;2023-10-08T06:49:46;100992.00;;;12.00
4421;BMP180;11824;51.178;13.546;2023-10-08T06:52:15;100988.00;;;11.90
4421;BMP180;11824;51.178;13.546;2023-10-08T06:54:47;100988.00;;;11.90
4421;BMP180;11824;51.178;13.546;2023-10-08T06:57:20;100992.00;;;11.90
4421;BMP180;11824;51.178;13.546;2023-10-08T06:59:49;100990.00;;;11.90
4421;BMP180;11824;51.178;13.546;2023-10-08T07:02:18;100996.00;;;11.90
4421;BMP180;11824;51.178;13.546;2023-10-08T07:04:47;101009.00;;;11.80
4421;BMP180;11824;51.178;13.546;2023-10-08T07:07:19;101013.00;;;11.70
4421;BMP180;11824;51.178;13.546;2023-10-08T07:09:49;101005.00;;;11.70
4421;BMP180;11824;51.178;13.546;2023-10-08T07:12:24;101016.00;;;11.70
4421;BMP180;11824;51.178;13.546;2023-10-08T07:14:52;101014.00;;;11.70
4421;BMP180;11824;51.178;13.546;2023-10-08T07:17:21;101026.00;;;11.70
4421;BMP180;11824;51.178;13.546;2023-10-08T07:19:55;101035.00;;;11.70
4421;BMP180;11824;51.178;13.546;2023-10-08T07:22:25;101040.00;;;11.80
4421;BMP180;11824;51.178;13.546;2023-10-08T07:24:58;101046.00;;;11.80
4421;BMP180;11824;51.178;13.546;2023-10-08T07:27:28;101047.00;;;11.80
4421;BMP180;11824;51.178;13.546;2023-10-08T07:30:00;101069.00;;;11.80
4421;BMP180;11824;51.178;13.546;2023-10-08T07:32:31;101060.00;;;11.80
4421;BMP180;11824;51.178;13.546;2023-10-08T07:35:02;101073.00;;;11.80
4421;BMP180;11824;51.178;13.546;2023-10-08T07:37:50;101077.00;;;11.90
4421;BMP180;11824;51.178;13.546;2023-10-08T07:40:22;101073.00;;;11.90
4421;BMP180;11824;51.178;13.546;2023-10-08T07:42:56;101073.00;;;11.90
4421;BMP180;11824;51.178;13.546;2023-10-08T07:45:25;101090.00;;;12.00
4421;BMP180;11824;51.178;13.546;2023-10-08T07:47:54;101081.00;;;12.00
4421;BMP180;11824;51.178;13.546;2023-10-08T07:50:23;101077.00;;;12.00
4421;BMP180;11824;51.178;13.546;2023-10-08T07:52:56;101085.00;;;12.10
4421;BMP180;11824;51.178;13.546;2023-10-08T07:55:27;101088.00;;;12.10
4421;BMP180;11824;51.178;13.546;2023-10-08T07:57:59;101093.00;;;12.20
4421;BMP180;11824;51.178;13.546;2023-10-08T08:00:39;101109.00;;;12.20
4421;BMP180;11824;51.178;13.546;2023-10-08T08:03:21;101120.00;;;12.20
4421;BMP180;11824;51.178;13.546;2023-10-08T08:05:52;101124.00;;;12.20
4421;BMP180;11824;51.178;13.546;2023-10-08T08:08:22;101135.00;;;12.30
4421;BMP180;11824;51.178;13.546;2023-10-08T08:10:57;101140.00;;;12.30
4421;BMP180;11824;51.178;13.546;2023-10-08T08:13:31;101137.00;;;12.30
4421;BMP180;11824;51.178;13.546;2023-10-08T08:16:24;101131.00;;;12.40
4421;BMP180;11824;51.178;13.546;2023-10-08T08:19:15;101140.00;;;12.50
4421;BMP180;11824;51.178;13.546;2023-10-08T08:22:25;101138.00;;;12.50
4421;BMP180;11824;51.178;13.546;2023-10-08T08:25:28;101133.00;;;12.70
4421;BMP180;11824;51.178;13.546;2023-10-08T08:32:21;101119.00;;;12.70
4421;BMP180;11824;51.178;13.546;2023-10-08T09:13:08;101172.00;;;14.10
4421;BMP180;11824;51.178;13.546;2023-10-08T09:15:57;101174.00;;;14.20
4421;BMP180;11824;51.178;13.546;2023-10-08T09:18:33;101169.00;;;14.20
4421;BMP180;11824;51.178;13.546;2023-10-08T09:21:15;101159.00;;;14.30
4421;BMP180;11824;51.178;13.546;2023-10-08T09:23:51;101167.00;;;14.30
4421;BMP180;11824;51.178;13.546;2023-10-08T09:26:23;101173.00;;;14.20
4421;BMP180;11824;51.178;13.546;2023-10-08T09:28:54;101174.00;;;14.20
4421;BMP180;11824;51.178;13.546;2023-10-08T09:31:24;101180.00;;;14.20
4421;BMP180;11824;51.178;13.546;2023-10-08T09:33:56;101184.00;;;14.10
4421;BMP180;11824;51.178;13.546;2023-10-08T09:36:25;101183.00;;;14.10
4421;BMP180;11824;51.178;13.546;2023-10-08T09:39:01;101193.00;;;14.10
4421;BMP180;11824;51.178;13.546;2023-10-08T09:41:32;101199.00;;;14.10
4421;BMP180;11824;51.178;13.546;2023-10-08T09:44:04;101202.00;;;14.00
4421;BMP180;11824;51.178;13.546;2023-10-08T09:46:40;101202.00;;;14.00
4421;BMP180;11824;51.178;13.546;2023-10-08T09:49:13;101208.00;;;14.10
4421;BMP180;11824;51.178;13.546;2023-10-08T09:51:44;101213.00;;;14.10
4421;BMP180;11824;51.178;13.546;2023-10-08T09:54:20;101213.00;;;14.00
4421;BMP180;11824;51.178;13.546;2023-10-08T09:56:50;101211.00;;;14.00
4421;BMP180;11824;51.178;13.546;2023-10-08T09:59:22;101217.00;;;14.00
4421;BMP180;11824;51.178;13.546;2023-10-08T10:01:52;101225.00;;;14.10
4421;BMP180;11824;51.178;13.546;2023-10-08T10:04:29;101224.00;;;14.10
4421;BMP180;11824;51.178;13.546;2023-10-08T10:07:09;101226.00;;;14.20
4421;BMP180;11824;51.178;13.546;2023-10-08T10:09:43;101225.00;;;14.30
4421;BMP180;11824;51.178;13.546;2023-10-08T10:12:20;101226.00;;;14.40
4421;BMP180;11824;51.178;13.546;2023-10-08T10:14:55;101227.00;;;14.70
4421;BMP180;11824;51.178;13.546;2023-10-08T10:17:26;101227.00;;;14.80
4421;BMP180;11824;51.178;13.546;2023-10-08T10:20:10;101233.00;;;14.80
4421;BMP180;11824;51.178;13.546;2023-10-08T10:22:44;101231.00;;;14.80
4421;BMP180;11824;51.178;13.546;2023-10-08T10:25:16;101231.00;;;14.90
4421;BMP180;11824;51.178;13.546;2023-10-08T10:31:42;101237.00;;;15.20
4421;BMP180;11824;51.178;13.546;2023-10-08T10:34:49;101249.00;;;15.30
4421;BMP180;11824;51.178;13.546;2023-10-08T10:37:42;101253.00;;;15.40
4421;BMP180;11824;51.178;13.546;2023-10-08T10:41:05;101246.00;;;15.40
4421;BMP180;11824;51.178;13.546;2023-10-08T10:44:11;101253.00;;;15.60
4421;BMP180;11824;51.178;13.546;2023-10-08T10:47:31;101252.00;;;15.60
4421;BMP180;11824;51.178;13.546;2023-10-08T10:50:36;101254.00;;;15.70
4421;BMP180;11824;51.178;13.546;2023-10-08T10:53:38;101245.00;;;15.70
4421;BMP180;11824;51.178;13.546;2023-10-08T10:56:48;101263.00;;;15.80
4421;BMP180;11824;51.178;13.546;2023-10-08T11:00:41;101246.00;;;15.70
4421;BMP180;11824;51.178;13.546;2023-10-08T11:07:36;101255.00;;;15.90
4421;BMP180;11824;51.178;13.546;2023-10-08T12:37:10;101236.00;;;17.50
4421;BMP180;11824;51.178;13.546;2023-10-08T12:40:41;101232.00;;;17.50
4421;BMP180;11824;51.178;13.546;2023-10-08T12:43:47;101241.00;;;17.40
4421;BMP180;11824;51.178;13.546;2023-10-08T12:46:22;101236.00;;;17.40
4421;BMP180;11824;51.178;13.546;2023-10-08T12:48:53;101230.00;;;17.20
4421;BMP180;11824;51.178;13.546;2023-10-08T12:51:24;101221.00;;;17.10
4421;BMP180;11824;51.178;13.546;2023-10-08T12:53:54;101208.00;;;17.00
4421;BMP180;11824;51.178;13.546;2023-10-08T12:56:32;101211.00;;;16.90
4421;BMP180;11824;51.178;13.546;2023-10-08T12:59:04;101207.00;;;16.70
4421;BMP180;11824;51.178;13.546;2023-10-08T13:01:35;101208.00;;;16.50
4421;BMP180;11824;51.178;13.546;2023-10-08T13:04:09;101224.00;;;16.50
4421;BMP180;11824;51.178;13.546;2023-10-08T13:06:44;101202.00;;;16.40
4421;BMP180;11824;51.178;13.546;2023-10-08T13:09:14;101206.00;;;16.30
4421;BMP180;11824;51.178;13.546;2023-10-08T13:11:42;101206.00;;;16.30
4421;BMP180;11824;51.178;13.546;2023-10-08T13:14:13;101189.00;;;16.20
4421;BMP180;11824;51.178;13.546;2023-10-08T13:16:43;101192.00;;;16.20
4421;BMP180;11824;51.178;13.546;2023-10-08T13:19:13;101182.00;;;16.20
4421;BMP180;11824;51.178;13.546;2023-10-08T13:21:43;101184.00;;;16.20
4421;BMP180;11824;51.178;13.546;2023-10-08T13:24:12;101189.00;;;16.20
4421;BMP180;11824;51.178;13.546;2023-10-08T13:26:41;101189.00;;;16.20
4421;BMP180;11824;51.178;13.546;2023-10-08T13:29:15;101192.00;;;16.20
4421;BMP180;11824;51.178;13.546;2023-10-08T13:31:47;101195.00;;;16.30
4421;BMP180;11824;51.178;13.546;2023-10-08T13:34:17;101186.00;;;16.40
4421;BMP180;11824;51.178;13.546;2023-10-08T13:36:46;101192.00;;;16.40
4421;BMP180;11824;51.178;13.546;2023-10-08T13:39:17;101193.00;;;16.40
4421;BMP180;11824;51.178;13.546;2023-10-08T13:41:47;101192.00;;;16.30
4421;BMP180;11824;51.178;13.546;2023-10-08T13:44:16;101192.00;;;16.20
4421;BMP180;11824;51.178;13.546;2023-10-08T13:46:58;101195.00;;;16.10
4421;BMP180;11824;51.178;13.546;2023-10-08T13:49:28;101187.00;;;16.00
4421;BMP180;11824;51.178;13.546;2023-10-08T13:51:58;101189.00;;;15.90
4421;BMP180;11824;51.178;13.546;2023-10-08T13:54:26;101193.00;;;15.80
4421;BMP180;11824;51.178;13.546;2023-10-08T13:56:57;101206.00;;;15.70
4421;BMP180;11824;51.178;13.546;2023-10-08T13:59:29;101210.00;;;15.70
4421;BMP180;11824;51.178;13.546;2023-10-08T14:02:02;101204.00;;;15.60
4421;BMP180;11824;51.178;13.546;2023-10-08T14:04:42;101206.00;;;15.50
4421;BMP180;11824;51.178;13.546;2023-10-08T14:07:13;101203.00;;;15.40
4421;BMP180;11824;51.178;13.546;2023-10-08T14:09:45;101201.00;;;15.40
4421;BMP180;11824;51.178;13.546;2023-10-08T14:12:14;101197.00;;;15.50
4421;BMP180;11824;51.178;13.546;2023-10-08T14:14:43;101198.00;;;15.50
4421;BMP180;11824;51.178;13.546;2023-10-08T14:17:14;101204.00;;;15.60
4421;BMP180;11824;51.178;13.546;2023-10-08T14:19:43;101207.00;;;15.70
4421;BMP180;11824;51.178;13.546;2023-10-08T14:22:19;101217.00;;;15.90
4421;BMP180;11824;51.178;13.546;2023-10-08T14:24:50;101215.00;;;16.00
4421;BMP180;11824;51.178;13.546;2023-10-08T14:27:27;101218.00;;;16.10
4421;BMP180;11824;51.178;13.546;2023-10-08T14:30:00;101223.00;;;16.30
4421;BMP180;11824;51.178;13.546;2023-10-08T14:32:34;101218.00;;;16.40
4421;BMP180;11824;51.178;13.546;2023-10-08T14:35:05;101211.00;;;16.50
4421;BMP180;11824;51.178;13.546;2023-10-08T14:37:52;101221.00;;;16.60
4421;BMP180;11824;51.178;13.546;2023-10-08T14:40:38;101210.00;;;16.60
4421;BMP180;11824;51.178;13.546;2023-10-08T14:43:26;101221.00;;;16.50
4421;BMP180;11824;51.178;13.546;2023-10-08T14:45:58;101223.00;;;16.50
4421;BMP180;11824;51.178;13.546;2023-10-08T14:48:33;101218.00;;;16.40
4421;BMP180;11824;51.178;13.546;2023-10-08T14:51:03;101210.00;;;16.40
4421;BMP180;11824;51.178;13.546;2023-10-08T14:53:34;101207.00;;;16.30
4421;BMP180;11824;51.178;13.546;2023-10-08T14:56:06;101204.00;;;16.20
4421;BMP180;11824;51.178;13.546;2023-10-08T14:58:35;101190.00;;;16.10
4421;BMP180;11824;51.178;13.546;2023-10-08T15:01:04;101196.00;;;15.90
4421;BMP180;11824;51.178;13.546;2023-10-08T15:03:34;101197.00;;;15.80
4421;BMP180;11824;51.178;13.546;2023-10-08T15:06:05;101206.00;;;15.70
4421;BMP180;11824;51.178;13.546;2023-10-08T15:08:35;101202.00;;;15.50
4421;BMP180;11824;51.178;13.546;2023-10-08T15:11:04;101214.00;;;15.40
4421;BMP180;11824;51.178;13.546;2023-10-08T15:13:34;101220.00;;;15.30
4421;BMP180;11824;51.178;13.546;2023-10-08T15:16:06;101223.00;;;15.10
4421;BMP180;11824;51.178;13.546;2023-10-08T15:18:36;101220.00;;;15.00
4421;BMP180;11824;51.178;13.546;2023-10-08T15:21:10;101224.00;;;14.90
4421;BMP180;11824;51.178;13.546;2023-10-08T15:23:39;101227.00;;;14.80
4421;BMP180;11824;51.178;13.546;2023-10-08T15:26:08;101224.00;;;14.70
4421;BMP180;11824;51.178;13.546;2023-10-08T15:28:38;101226.00;;;14.60
4421;BMP180;11824;51.178;13.546;2023-10-08T15:31:07;101238.00;;;14.50
4421;BMP180;11824;51.178;13.546;2023-10-08T15:33:37;101238.00;;;14.50
4421;BMP180;11824;51.178;13.546;2023-10-08T15:36:06;101238.00;;;14.40
4421;BMP180;11824;51.178;13.546;2023-10-08T15:38:35;101237.00;;;14.30
4421;BMP180;11824;51.178;13.546;2023-10-08T15:41:06;101239.00;;;14.20
4421;BMP180;11824;51.178;13.546;2023-10-08T15:43:35;101237.00;;;14.10
4421;BMP180;11824;51.178;13.546;2023-10-08T15:46:04;101230.00;;;14.10
4421;BMP180;11824;51.178;13.546;2023-10-08T15:48:34;101221.00;;;14.00
4421;BMP180;11824;51.178;13.546;2023-10-08T15:51:06;101235.00;;;13.90
4421;BMP180;11824;51.178;13.546;2023-10-08T15:53:35;101227.00;;;13.80
4421;BMP180;11824;51.178;13.546;2023-10-08T15:56:04;101225.00;;;13.80
4421;BMP180;11824;51.178;13.546;2023-10-08T15:58:33;101229.00;;;13.70
4421;BMP180;11824;51.178;13.546;2023-10-08T16:01:02;101225.00;;;13.60
4421;BMP180;11824;51.178;13.546;2023-10-08T16:03:31;101234.00;;;13.50
4421;BMP180;11824;51.178;13.546;2023-10-08T16:06:00;101229.00;;;13.50
4421;BMP180;11824;51.178;13.546;2023-10-08T16:08:31;101230.00;;;13.50
4421;BMP180;11824;51.178;13.546;2023-10-08T16:11:00;101237.00;;;13.50
4421;BMP180;11824;51.178;13.546;2023-10-08T16:13:28;101247.00;;;13.50
4421;BMP180;11824;51.178;13.546;2023-10-08T16:15:57;101248.00;;;13.50
4421;BMP180;11824;51.178;13.546;2023-10-08T16:18:27;101253.00;;;13.50
4421;BMP180;11824;51.178;13.546;2023-10-08T16:20:56;101252.00;;;13.50
4421;BMP180;11824;51.178;13.546;2023-10-08T16:23:24;101261.00;;;13.40
4421;BMP180;11824;51.178;13.546;2023-10-08T16:25:56;101263.00;;;13.40
4421;BMP180;11824;51.178;13.546;2023-10-08T16:28:26;101267.00;;;13.30
4421;BMP180;11824;51.178;13.546;2023-10-08T16:30:54;101281.00;;;13.20
4421;BMP180;11824;51.178;13.546;2023-10-08T16:33:25;101272.00;;;13.20
4421;BMP180;11824;51.178;13.546;2023-10-08T16:35:57;101292.00;;;13.10
4421;BMP180;11824;51.178;13.546;2023-10-08T16:38:29;101281.00;;;13.10
4421;BMP180;11824;51.178;13.546;2023-10-08T16:41:00;101289.00;;;13.10
4421;BMP180;11824;51.178;13.546;2023-10-08T16:43:29;101283.00;;;13.00
4421;BMP180;11824;51.178;13.546;2023-10-08T16:45:58;101282.00;;;13.00
4421;BMP180;11824;51.178;13.546;2023-10-08T16:48:33;101279.00;;;13.00
4421;BMP180;11824;51.178;13.546;2023-10-08T16:51:02;101275.00;;;13.00
4421;BMP180;11824;51.178;13.546;2023-10-08T16:53:31;101282.00;;;13.00
4421;BMP180;11824;51.178;13.546;2023-10-08T16:56:04;101288.00;;;13.00
4421;BMP180;11824;51.178;13.546;2023-10-08T16:58:34;101295.00;;;13.00
4421;BMP180;11824;51.178;13.546;2023-10-08T17:01:03;101290.00;;;13.00
4421;BMP180;11824;51.178;13.546;2023-10-08T17:03:36;101298.00;;;13.00
4421;BMP180;11824;51.178;13.546;2023-10-08T17:06:05;101294.00;;;13.00